sensor_id;sensor_type;location;lat;lon;timestamp;pressure;altitude;pressure_sealevel;temperature;humidity
72857;BME280;62742;52.136;4.500;2022-10-16T00:01:27;100935.34;;;14.30;73.60
72857;BME280;62742;52.136;4.500;2022-10-16T00:03:57;100929.56;;;14.16;73.58
72857;BME280;62742;52.136;4.500;2022-10-16T00:06:25;100936.19;;;14.31;72.55
72857;BME280;62742;52.136;4.500;2022-10-16T00:08:53;100934.16;;;14.40;72.60
72857;BME280;62742;52.136;4.500;2022-10-16T00:11:23;100929.41;;;14.52;71.64
72857;BME280;62742;52.136;4.500;2022-10-16T00:13:57;100937.06;;;14.31;73.25
72857;BME280;62742;52.136;4.500;2022-10-16T00:16:26;100936.19;;;14.31;73.01
72857;BME280;62742;52.136;4.500;2022-10-16T00:18:54;100935.13;;;14.36;72.75
72857;BME280;62742;52.136;4.500;2022-10-16T00:21:24;100931.50;;;14.40;72.31
72857;BME280;62742;52.136;4.500;2022-10-16T00:23:58;100934.16;;;14.40;72.04
72857;BME280;62742;52.136;4.500;2022-10-16T00:26:31;100929.69;;;14.43;71.74
72857;BME280;62742;52.136;4.500;2022-10-16T00:28:59;100924.97;;;14.52;71.21
72857;BME280;62742;52.136;4.500;2022-10-16T00:31:27;100926.13;;;14.44;71.89
72857;BME280;62742;52.136;4.500;2022-10-16T00:33:54;100924.97;;;14.52;71.70
72857;BME280;62742;52.136;4.500;2022-10-16T00:36:22;100914.44;;;14.51;71.43
72857;BME280;62742;52.136;4.500;2022-10-16T00:38:52;100918.28;;;14.40;72.42
72857;BME280;62742;52.136;4.500;2022-10-16T00:41:22;100921.19;;;14.31;72.62
72857;BME280;62742;52.136;4.500;2022-10-16T00:46:33;100923.56;;;14.40;72.10
72857;BME280;62742;52.136;4.500;2022-10-16T00:49:15;100917.97;;;14.21;73.02
72857;BME280;62742;52.136;4.500;2022-10-16T00:51:52;100913.00;;;14.11;73.37
72857;BME280;62742;52.136;4.500;2022-10-16T00:54:25;100917.22;;;14.18;73.34
72857;BME280;62742;52.136;4.500;2022-10-16T00:56:54;100919.81;;;14.19;73.15
72857;BME280;62742;52.136;4.500;2022-10-16T00:59:31;100923.94;;;14.28;73.14
72857;BME280;62742;52.136;4.500;2022-10-16T01:02:01;100919.81;;;14.19;73.66
72857;BME280;62742;52.136;4.500;2022-10-16T01:04:32;100938.88;;;14.29;73.36
72857;BME280;62742;52.136;4.500;2022-10-16T01:10:25;100935.50;;;14.24;74.13
72857;BME280;62742;52.136;4.500;2022-10-16T01:15:55;100940.09;;;14.17;74.63
72857;BME280;62742;52.136;4.500;2022-10-16T01:18:45;100929.94;;;14.35;74.17
72857;BME280;62742;52.136;4.500;2022-10-16T01:21:26;100929.38;;;14.24;74.56
72857;BME280;62742;52.136;4.500;2022-10-16T01:24:28;100927.91;;;14.13;74.91
72857;BME280;62742;52.136;4.500;2022-10-16T01:30:02;100932.78;;;13.97;75.81
72857;BME280;62742;52.136;4.500;2022-10-16T01:35:28;100940.03;;;13.89;76.63
72857;BME280;62742;52.136;4.500;2022-10-16T01:41:24;100944.63;;;13.82;77.09
72857;BME280;62742;52.136;4.500;2022-10-16T01:44:04;100946.03;;;13.96;76.74
72857;BME280;62742;52.136;4.500;2022-10-16T01:46:40;100945.41;;;13.86;77.38
72857;BME280;62742;52.136;4.500;2022-10-16T01:49:09;100946.88;;;13.96;76.74
72857;BME280;62742;52.136;4.500;2022-10-16T01:51:38;100949.81;;;13.86;77.62
72857;BME280;62742;52.136;4.500;2022-10-16T01:54:07;100946.41;;;13.82;77.68
72857;BME280;62742;52.136;4.500;2022-10-16T01:56:36;100941.22;;;13.79;78.07
72857;BME280;62742;52.136;4.500;2022-10-16T01:59:17;100943.84;;;13.79;78.18
72857;BME280;62742;52.136;4.500;2022-10-16T02:01:52;100954.41;;;13.79;77.82
72857;BME280;62742;52.136;4.500;2022-10-16T02:04:29;100947.03;;;13.90;77.70
72857;BME280;62742;52.136;4.500;2022-10-16T02:07:03;100956.59;;;13.96;76.87
72857;BME280;62742;52.136;4.500;2022-10-16T02:09:32;100961.72;;;14.00;77.20
72857;BME280;62742;52.136;4.500;2022-10-16T02:12:06;100954.34;;;13.82;77.83
72857;BME280;62742;52.136;4.500;2022-10-16T02:14:39;100952.50;;;13.84;77.90
72857;BME280;62742;52.136;4.500;2022-10-16T02:17:15;100959.81;;;13.74;78.39
72857;BME280;62742;52.136;4.500;2022-10-16T02:19:45;100958.22;;;13.69;78.85
72857;BME280;62742;52.136;4.500;2022-10-16T02:22:36;100955.22;;;13.81;78.17
72857;BME280;62742;52.136;4.500;2022-10-16T02:28:06;100961.63;;;13.72;78.72
72857;BME280;62742;52.136;4.500;2022-10-16T02:30:52;100970.75;;;13.60;79.63
72857;BME280;62742;52.136;4.500;2022-10-16T02:33:26;100966.31;;;13.61;79.52
72857;BME280;62742;52.136;4.500;2022-10-16T02:35:57;100979.59;;;13.58;79.61
72857;BME280;62742;52.136;4.500;2022-10-16T02:38:25;100978.38;;;13.71;78.76
72857;BME280;62742;52.136;4.500;2022-10-16T02:40:52;100980.59;;;13.54;79.51
72857;BME280;62742;52.136;4.500;2022-10-16T02:43:19;100983.19;;;13.55;79.28
72857;BME280;62742;52.136;4.500;2022-10-16T02:45:46;100979.16;;;13.75;78.58
72857;BME280;62742;52.136;4.500;2022-10-16T02:48:12;100984.72;;;13.64;79.16
72857;BME280;62742;52.136;4.500;2022-10-16T02:50:39;100983.22;;;13.54;79.74
72857;BME280;62742;52.136;4.500;2022-10-16T02:53:05;100994.78;;;13.50;79.90
72857;BME280;62742;52.136;4.500;2022-10-16T02:55:32;100987.69;;;13.52;79.87
72857;BME280;62742;52.136;4.500;2022-10-16T02:57:58;100996.41;;;13.55;79.87
72857;BME280;62742;52.136;4.500;2022-10-16T03:00:25;100986.63;;;13.59;79.58
72857;BME280;62742;52.136;4.500;2022-10-16T03:02:51;100983.06;;;13.61;79.32
72857;BME280;62742;52.136;4.500;2022-10-16T03:05:18;100983.88;;;13.63;79.55
72857;BME280;62742;52.136;4.500;2022-10-16T03:07:44;100979.69;;;13.55;79.99
72857;BME280;62742;52.136;4.500;2022-10-16T03:10:11;100987.41;;;13.62;79.55
72857;BME280;62742;52.136;4.500;2022-10-16T03:12:37;100979.72;;;13.53;79.84
72857;BME280;62742;52.136;4.500;2022-10-16T03:15:04;100980.06;;;13.41;80.20
72857;BME280;62742;52.136;4.500;2022-10-16T03:17:32;100983.25;;;13.52;79.98
72857;BME280;62742;52.136;4.500;2022-10-16T03:19:58;100981.84;;;13.39;80.77
72857;BME280;62742;52.136;4.500;2022-10-16T03:22:25;100979.03;;;13.46;80.48
72857;BME280;62742;52.136;4.500;2022-10-16T03:24:51;100984.41;;;13.42;80.76
72857;BME280;62742;52.136;4.500;2022-10-16T03:27:18;100991.22;;;13.51;80.64
72857;BME280;62742;52.136;4.500;2022-10-16T03:29:45;100992.28;;;13.43;81.03
72857;BME280;62742;52.136;4.500;2022-10-16T03:32:11;100994.78;;;13.50;80.54
72857;BME280;62742;52.136;4.500;2022-10-16T03:34:38;100998.59;;;13.38;81.35
72857;BME280;62742;52.136;4.500;2022-10-16T03:37:04;101000.09;;;13.48;80.95
72857;BME280;62742;52.136;4.500;2022-10-16T03:39:31;101006.31;;;13.45;81.08
72857;BME280;62742;52.136;4.500;2022-10-16T03:41:57;100998.22;;;13.53;81.20
72857;BME280;62742;52.136;4.500;2022-10-16T03:44:24;101000.78;;;13.56;81.38
72857;BME280;62742;52.136;4.500;2022-10-16T03:46:50;101008.78;;;13.53;81.48
72857;BME280;62742;52.136;4.500;2022-10-16T03:49:16;101009.72;;;13.51;81.32
72857;BME280;62742;52.136;4.500;2022-10-16T03:51:43;101013.06;;;13.57;81.20
72857;BME280;62742;52.136;4.500;2022-10-16T03:54:10;101013.84;;;13.61;80.92
72857;BME280;62742;52.136;4.500;2022-10-16T03:56:37;101015.66;;;13.59;80.90
72857;BME280;62742;52.136;4.500;2022-10-16T03:59:03;101028.09;;;13.55;81.11
72857;BME280;62742;52.136;4.500;2022-10-16T04:01:30;101030.66;;;13.58;80.86
72857;BME280;62742;52.136;4.500;2022-10-16T04:03:56;101033.34;;;13.55;81.19
72857;BME280;62742;52.136;4.500;2022-10-16T04:06:23;101041.25;;;13.57;81.21
72857;BME280;62742;52.136;4.500;2022-10-16T04:08:49;101038.78;;;13.49;81.29
72857;BME280;62742;52.136;4.500;2022-10-16T04:11:16;101035.19;;;13.53;81.08
72857;BME280;62742;52.136;4.500;2022-10-16T04:13:42;101038.63;;;13.55;81.15
72857;BME280;62742;52.136;4.500;2022-10-16T04:16:09;101035.94;;;13.58;80.99
72857;BME280;62742;52.136;4.500;2022-10-16T04:18:36;101046.41;;;13.61;81.13
72857;BME280;62742;52.136;4.500;2022-10-16T04:21:04;101048.97;;;13.64;80.98
72857;BME280;62742;52.136;4.500;2022-10-16T04:23:32;101043.88;;;13.57;81.17
72857;BME280;62742;52.136;4.500;2022-10-16T04:25:59;101044.69;;;13.60;81.31
72857;BME280;62742;52.136;4.500;2022-10-16T04:28:27;101049.06;;;13.61;81.35
72857;BME280;62742;52.136;4.500;2022-10-16T04:30:53;101053.28;;;13.69;80.96
72857;BME280;62742;52.136;4.500;2022-10-16T04:33:20;101064.16;;;13.56;81.76
72857;BME280;62742;52.136;4.500;2022-10-16T04:35:47;101070.44;;;13.51;82.41
72857;BME280;62742;52.136;4.500;2022-10-16T04:38:13;101063.28;;;13.54;82.18
72857;BME280;62742;52.136;4.500;2022-10-16T04:40:44;101070.09;;;13.64;81.80
72857;BME280;62742;52.136;4.500;2022-10-16T04:43:10;101082.84;;;13.47;82.82
72857;BME280;62742;52.136;4.500;2022-10-16T04:45:37;101094.19;;;13.51;82.71
72857;BME280;62742;52.136;4.500;2022-10-16T04:48:03;101101.16;;;13.55;82.56
72857;BME280;62742;52.136;4.500;2022-10-16T04:50:30;101103.66;;;13.59;82.29
72857;BME280;62742;52.136;4.500;2022-10-16T04:52:56;101101.31;;;13.47;83.32
72857;BME280;62742;52.136;4.500;2022-10-16T04:55:23;101095.97;;;13.50;83.89
72857;BME280;62742;52.136;4.500;2022-10-16T04:57:49;101099.66;;;13.43;84.34
72857;BME280;62742;52.136;4.500;2022-10-16T05:00:16;101099.66;;;13.43;84.85
72857;BME280;62742;52.136;4.500;2022-10-16T05:02:44;101111.13;;;13.42;84.96
72857;BME280;62742;52.136;4.500;2022-10-16T05:05:11;101115.31;;;13.51;84.78
72857;BME280;62742;52.136;4.500;2022-10-16T05:07:38;101103.34;;;13.36;85.50
72857;BME280;62742;52.136;4.500;2022-10-16T05:10:04;101113.81;;;13.39;85.47
72857;BME280;62742;52.136;4.500;2022-10-16T05:12:31;101111.81;;;13.50;85.25
72857;BME280;62742;52.136;4.500;2022-10-16T05:14:58;101122.81;;;13.28;86.59
72857;BME280;62742;52.136;4.500;2022-10-16T05:17:25;101131.53;;;13.34;86.05
72857;BME280;62742;52.136;4.500;2022-10-16T05:19:52;101125.41;;;13.30;86.54
72857;BME280;62742;52.136;4.500;2022-10-16T05:22:19;101129.84;;;13.29;86.69
72857;BME280;62742;52.136;4.500;2022-10-16T05:24:45;101132.47;;;13.29;86.60
72857;BME280;62742;52.136;4.500;2022-10-16T05:27:12;101139.56;;;13.27;86.84
72857;BME280;62742;52.136;4.500;2022-10-16T05:29:46;101154.69;;;13.19;87.79
72857;BME280;62742;52.136;4.500;2022-10-16T05:32:16;101161.81;;;13.16;88.02
72857;BME280;62742;52.136;4.500;2022-10-16T05:34:44;101157.97;;;13.32;87.71
72857;BME280;62742;52.136;4.500;2022-10-16T05:37:12;101156.44;;;13.20;88.45
72857;BME280;62742;52.136;4.500;2022-10-16T05:39:38;101164.97;;;13.33;87.75
72857;BME280;62742;52.136;4.500;2022-10-16T05:42:05;101165.25;;;13.19;88.45
72857;BME280;62742;52.136;4.500;2022-10-16T05:44:32;101168.69;;;13.23;88.32
72857;BME280;62742;52.136;4.500;2022-10-16T05:46:59;101172.97;;;13.28;87.82
72857;BME280;62742;52.136;4.500;2022-10-16T05:49:25;101170.56;;;13.18;88.49
72857;BME280;62742;52.136;4.500;2022-10-16T05:51:53;101161.56;;;13.26;87.83
72857;BME280;62742;52.136;4.500;2022-10-16T05:54:19;101151.06;;;13.23;88.02
72857;BME280;62742;52.136;4.500;2022-10-16T05:56:46;101160.97;;;13.14;88.64
72857;BME280;62742;52.136;4.500;2022-10-16T05:59:12;101151.41;;;13.08;88.57
72857;BME280;62742;52.136;4.500;2022-10-16T06:01:39;101159.38;;;13.05;88.90
72857;BME280;62742;52.136;4.500;2022-10-16T06:04:05;101165.72;;;12.96;89.21
72857;BME280;62742;52.136;4.500;2022-10-16T06:06:32;101165.69;;;12.98;89.09
72857;BME280;62742;52.136;4.500;2022-10-16T06:08:58;101165.63;;;13.01;88.73
72857;BME280;62742;52.136;4.500;2022-10-16T06:11:28;101169.16;;;13.00;88.71
72857;BME280;62742;52.136;4.500;2022-10-16T06:13:58;101171.78;;;13.00;88.33
72857;BME280;62742;52.136;4.500;2022-10-16T06:16:28;101172.84;;;12.91;88.64
72857;BME280;62742;52.136;4.500;2022-10-16T06:18:56;101171.13;;;12.90;89.10
72857;BME280;62742;52.136;4.500;2022-10-16T06:21:24;101174.22;;;13.12;87.59
72857;BME280;62742;52.136;4.500;2022-10-16T06:23:53;101189.25;;;13.07;87.63
72857;BME280;62742;52.136;4.500;2022-10-16T06:26:23;101188.50;;;13.00;88.11
72857;BME280;62742;52.136;4.500;2022-10-16T06:28:51;101183.31;;;12.96;88.30
72857;BME280;62742;52.136;4.500;2022-10-16T06:31:19;101191.22;;;12.97;88.09
72857;BME280;62742;52.136;4.500;2022-10-16T06:33:50;101201.75;;;12.97;88.01
72857;BME280;62742;52.136;4.500;2022-10-16T06:36:17;101199.22;;;12.91;88.61
72857;BME280;62742;52.136;4.500;2022-10-16T06:38:44;101216.69;;;12.98;88.05
72857;BME280;62742;52.136;4.500;2022-10-16T06:41:13;101210.41;;;13.05;87.72
72857;BME280;62742;52.136;4.500;2022-10-16T06:43:42;101214.72;;;13.08;87.31
72857;BME280;62742;52.136;4.500;2022-10-16T06:46:15;101213.06;;;13.04;87.83
72857;BME280;62742;52.136;4.500;2022-10-16T06:48:44;101223.63;;;13.04;87.48
72857;BME280;62742;52.136;4.500;2022-10-16T06:51:13;101235.88;;;13.06;87.54
72857;BME280;62742;52.136;4.500;2022-10-16T06:53:44;101233.00;;;13.19;86.76
72857;BME280;62742;52.136;4.500;2022-10-16T06:56:15;101233.97;;;13.13;87.15
72857;BME280;62742;52.136;4.500;2022-10-16T06:58:47;101237.53;;;13.12;86.59
72857;BME280;62742;52.136;4.500;2022-10-16T07:01:16;101239.19;;;13.16;86.42
72857;BME280;62742;52.136;4.500;2022-10-16T07:03:45;101240.31;;;13.04;86.35
72857;BME280;62742;52.136;4.500;2022-10-16T07:06:17;101240.34;;;13.03;86.43
72857;BME280;62742;52.136;4.500;2022-10-16T07:08:46;101243.81;;;13.05;86.27
72857;BME280;62742;52.136;4.500;2022-10-16T07:11:18;101255.19;;;13.08;85.93
72857;BME280;62742;52.136;4.500;2022-10-16T07:13:47;101268.50;;;13.01;86.35
72857;BME280;62742;52.136;4.500;2022-10-16T07:16:19;101281.69;;;13.02;86.65
72857;BME280;62742;52.136;4.500;2022-10-16T07:18:48;101276.34;;;13.05;86.43
72857;BME280;62742;52.136;4.500;2022-10-16T07:21:17;101284.22;;;13.08;86.28
72857;BME280;62742;52.136;4.500;2022-10-16T07:23:52;101295.66;;;13.07;86.39
72857;BME280;62742;52.136;4.500;2022-10-16T07:26:19;101300.91;;;13.09;86.93
72857;BME280;62742;52.136;4.500;2022-10-16T07:28:46;101302.53;;;13.16;86.29
72857;BME280;62742;52.136;4.500;2022-10-16T07:31:15;101307.00;;;13.13;86.69
72857;BME280;62742;52.136;4.500;2022-10-16T07:33:44;101315.66;;;13.19;86.88
72857;BME280;62742;52.136;4.500;2022-10-16T07:36:15;101319.13;;;13.21;86.73
72857;BME280;62742;52.136;4.500;2022-10-16T07:38:44;101327.09;;;13.18;87.76
72857;BME280;62742;52.136;4.500;2022-10-16T07:41:15;101338.44;;;13.23;87.82
72857;BME280;62742;52.136;4.500;2022-10-16T07:43:52;101335.69;;;13.33;87.18
72857;BME280;62742;52.136;4.500;2022-10-16T07:46:22;101345.31;;;13.34;87.44
72857;BME280;62742;52.136;4.500;2022-10-16T07:48:49;101339.84;;;13.46;87.06
72857;BME280;62742;52.136;4.500;2022-10-16T07:51:18;101346.06;;;13.42;87.11
72857;BME280;62742;52.136;4.500;2022-10-16T07:53:47;101344.84;;;13.60;86.32
72857;BME280;62742;52.136;4.500;2022-10-16T07:56:14;101363.34;;;13.58;86.49
72857;BME280;62742;52.136;4.500;2022-10-16T07:58:42;101372.88;;;13.65;86.17
72857;BME280;62742;52.136;4.500;2022-10-16T08:01:12;101371.44;;;13.93;84.95
72857;BME280;62742;52.136;4.500;2022-10-16T08:03:58;101370.41;;;14.00;84.41
72857;BME280;62742;52.136;4.500;2022-10-16T08:06:25;101381.59;;;14.13;84.30
72857;BME280;62742;52.136;4.500;2022-10-16T08:08:52;101376.31;;;14.13;84.30
72857;BME280;62742;52.136;4.500;2022-10-16T08:11:18;101380.16;;;14.38;83.85
72857;BME280;62742;52.136;4.500;2022-10-16T08:13:45;101385.09;;;14.54;82.83
72857;BME280;62742;52.136;4.500;2022-10-16T08:16:11;101380.56;;;14.61;82.22
72857;BME280;62742;52.136;4.500;2022-10-16T08:18:39;101396.28;;;14.67;82.52
72857;BME280;62742;52.136;4.500;2022-10-16T08:21:08;101386.81;;;14.92;81.65
72857;BME280;62742;52.136;4.500;2022-10-16T08:23:39;101391.88;;;15.03;81.54
72857;BME280;62742;52.136;4.500;2022-10-16T08:26:08;101394.00;;;15.22;80.52
72857;BME280;62742;52.136;4.500;2022-10-16T08:28:35;101398.41;;;15.23;80.18
72857;BME280;62742;52.136;4.500;2022-10-16T08:31:20;101394.56;;;15.34;79.35
72857;BME280;62742;52.136;4.500;2022-10-16T08:33:47;101398.44;;;15.54;79.04
72857;BME280;62742;52.136;4.500;2022-10-16T08:36:15;101407.19;;;15.58;78.49
72857;BME280;62742;52.136;4.500;2022-10-16T08:38:42;101404.22;;;15.70;78.56
72857;BME280;62742;52.136;4.500;2022-10-16T08:41:32;101414.50;;;15.82;78.43
72857;BME280;62742;52.136;4.500;2022-10-16T08:50:21;101425.97;;;15.83;77.23
72857;BME280;62742;52.136;4.500;2022-10-16T08:52:51;101441.50;;;15.95;77.88
72857;BME280;62742;52.136;4.500;2022-10-16T08:55:46;101456.47;;;15.98;76.92
72857;BME280;62742;52.136;4.500;2022-10-16T08:58:22;101451.34;;;16.23;75.98
72857;BME280;62742;52.136;4.500;2022-10-16T09:01:04;101453.50;;;16.40;75.42
72857;BME280;62742;52.136;4.500;2022-10-16T09:06:55;101457.88;;;16.11;75.45
72857;BME280;62742;52.136;4.500;2022-10-16T09:09:44;101473.56;;;16.17;75.88
72857;BME280;62742;52.136;4.500;2022-10-16T09:15:32;101482.59;;;16.41;75.73
72857;BME280;62742;52.136;4.500;2022-10-16T09:18:41;101482.25;;;16.54;74.54
72857;BME280;62742;52.136;4.500;2022-10-16T09:21:41;101483.66;;;16.66;74.71
72857;BME280;62742;52.136;4.500;2022-10-16T09:24:18;101482.81;;;16.63;75.01
72857;BME280;62742;52.136;4.500;2022-10-16T09:26:47;101488.03;;;16.67;74.26
72857;BME280;62742;52.136;4.500;2022-10-16T09:29:15;101482.47;;;16.76;74.21
72857;BME280;62742;52.136;4.500;2022-10-16T09:31:43;101472.78;;;17.03;73.68
72857;BME280;62742;52.136;4.500;2022-10-16T09:36:47;101469.47;;;17.23;72.18
72857;BME280;62742;52.136;4.500;2022-10-16T09:39:14;101486.09;;;17.28;71.56
72857;BME280;62742;52.136;4.500;2022-10-16T09:41:42;101473.66;;;17.30;70.74
72857;BME280;62742;52.136;4.500;2022-10-16T09:44:30;101476.81;;;17.42;72.37
72857;BME280;62742;52.136;4.500;2022-10-16T09:47:04;101474.56;;;17.81;69.10
72857;BME280;62742;52.136;4.500;2022-10-16T09:49:38;101479.69;;;17.61;69.08
72857;BME280;62742;52.136;4.500;2022-10-16T09:52:14;101481.56;;;17.84;66.81
72857;BME280;62742;52.136;4.500;2022-10-16T09:55:14;101486.66;;;17.65;68.30
72857;BME280;62742;52.136;4.500;2022-10-16T09:57:52;101489.00;;;17.74;66.71
72857;BME280;62742;52.136;4.500;2022-10-16T10:00:21;101487.28;;;17.98;66.30
72857;BME280;62742;52.136;4.500;2022-10-16T10:02:49;101487.78;;;17.83;65.75
72857;BME280;62742;52.136;4.500;2022-10-16T10:05:25;101487.75;;;18.09;64.64
72857;BME280;62742;52.136;4.500;2022-10-16T10:08:01;101486.94;;;18.31;65.65
72857;BME280;62742;52.136;4.500;2022-10-16T10:10:36;101489.69;;;18.29;65.83
72857;BME280;62742;52.136;4.500;2022-10-16T10:13:21;101486.31;;;18.48;65.85
72857;BME280;62742;52.136;4.500;2022-10-16T10:15:50;101492.34;;;18.75;64.63
72857;BME280;62742;52.136;4.500;2022-10-16T10:18:18;101494.03;;;18.78;63.86
72857;BME280;62742;52.136;4.500;2022-10-16T10:20:59;101500.81;;;18.86;62.83
72857;BME280;62742;52.136;4.500;2022-10-16T10:23:29;101504.41;;;19.08;62.73
72857;BME280;62742;52.136;4.500;2022-10-16T10:26:17;101517.31;;;19.18;60.90
72857;BME280;62742;52.136;4.500;2022-10-16T10:32:02;101525.78;;;19.28;61.36
72857;BME280;62742;52.136;4.500;2022-10-16T10:38:18;101531.38;;;19.00;56.28
72857;BME280;62742;52.136;4.500;2022-10-16T10:44:19;101534.22;;;18.72;54.87
72857;BME280;62742;52.136;4.500;2022-10-16T10:50:22;101538.81;;;18.92;53.16
72857;BME280;62742;52.136;4.500;2022-10-16T10:52:53;101545.31;;;19.06;54.52
72857;BME280;62742;52.136;4.500;2022-10-16T10:59:06;101551.56;;;18.58;55.78
72857;BME280;62742;52.136;4.500;2022-10-16T11:04:49;101543.75;;;19.01;55.46
72857;BME280;62742;52.136;4.500;2022-10-16T11:07:49;101554.28;;;19.04;55.15
72857;BME280;62742;52.136;4.500;2022-10-16T11:10:52;101556.91;;;19.05;57.05
72857;BME280;62742;52.136;4.500;2022-10-16T11:13:30;101563.72;;;19.35;54.87
72857;BME280;62742;52.136;4.500;2022-10-16T11:16:11;101553.78;;;19.38;55.04
72857;BME280;62742;52.136;4.500;2022-10-16T11:19:05;101565.19;;;19.42;54.35
72857;BME280;62742;52.136;4.500;2022-10-16T11:22:06;101567.03;;;18.96;54.21
72857;BME280;62742;52.136;4.500;2022-10-16T11:24:59;101567.13;;;19.16;54.81
72857;BME280;62742;52.136;4.500;2022-10-16T11:27:52;101566.94;;;19.43;52.83
72857;BME280;62742;52.136;4.500;2022-10-16T11:30:34;101576.00;;;19.39;53.13
72857;BME280;62742;52.136;4.500;2022-10-16T11:35:55;101577.16;;;19.54;53.27
72857;BME280;62742;52.136;4.500;2022-10-16T11:41:52;101578.59;;;19.18;52.86
72857;BME280;62742;52.136;4.500;2022-10-16T11:47:35;101576.72;;;18.98;53.05
72857;BME280;62742;52.136;4.500;2022-10-16T11:50:23;101578.97;;;19.31;52.23
72857;BME280;62742;52.136;4.500;2022-10-16T11:56:17;101587.81;;;19.54;53.06
72857;BME280;62742;52.136;4.500;2022-10-16T11:59:03;101586.44;;;19.88;51.63
72857;BME280;62742;52.136;4.500;2022-10-16T12:01:41;101586.38;;;20.10;50.60
72857;BME280;62742;52.136;4.500;2022-10-16T12:07:17;101595.00;;;20.16;50.57
72857;BME280;62742;52.136;4.500;2022-10-16T12:09:49;101586.50;;;20.27;49.76
72857;BME280;62742;52.136;4.500;2022-10-16T12:12:37;101600.00;;;20.04;50.68
72857;BME280;62742;52.136;4.500;2022-10-16T12:15:26;101599.91;;;20.05;51.49
72857;BME280;62742;52.136;4.500;2022-10-16T12:17:55;101601.13;;;20.18;50.15
72857;BME280;62742;52.136;4.500;2022-10-16T12:20:31;101605.13;;;20.29;49.68
72857;BME280;62742;52.136;4.500;2022-10-16T12:23:02;101613.91;;;20.31;47.75
72857;BME280;62742;52.136;4.500;2022-10-16T12:25:33;101604.50;;;20.02;48.36
72857;BME280;62742;52.136;4.500;2022-10-16T12:28:19;101610.00;;;20.19;48.29
72857;BME280;62742;52.136;4.500;2022-10-16T12:31:00;101609.72;;;20.25;48.18
72857;BME280;62742;52.136;4.500;2022-10-16T12:33:30;101612.47;;;20.03;49.67
72857;BME280;62742;52.136;4.500;2022-10-16T12:36:03;101617.53;;;20.30;48.29
72857;BME280;62742;52.136;4.500;2022-10-16T12:38:46;101615.53;;;20.35;46.81
72857;BME280;62742;52.136;4.500;2022-10-16T12:41:31;101617.94;;;20.21;47.77
72857;BME280;62742;52.136;4.500;2022-10-16T12:44:03;101617.47;;;19.90;49.80
72857;BME280;62742;52.136;4.500;2022-10-16T12:51:41;101609.69;;;19.62;49.18
72857;BME280;62742;52.136;4.500;2022-10-16T12:54:18;101610.84;;;19.56;47.97
72857;BME280;62742;52.136;4.500;2022-10-16T13:02:57;101616.81;;;19.17;49.90
72857;BME280;62742;52.136;4.500;2022-10-16T13:20:22;101639.34;;;19.32;50.47
72857;BME280;62742;52.136;4.500;2022-10-16T13:23:34;101645.66;;;19.30;50.28
72857;BME280;62742;52.136;4.500;2022-10-16T13:29:02;101649.59;;;19.19;51.82
72857;BME280;62742;52.136;4.500;2022-10-16T13:31:30;101658.78;;;19.12;51.77
72857;BME280;62742;52.136;4.500;2022-10-16T13:34:00;101655.09;;;18.93;53.85
72857;BME280;62742;52.136;4.500;2022-10-16T13:36:35;101657.28;;;19.05;52.37
72857;BME280;62742;52.136;4.500;2022-10-16T13:39:23;101660.97;;;19.01;52.49
72857;BME280;62742;52.136;4.500;2022-10-16T13:42:04;101677.78;;;19.03;52.16
72857;BME280;62742;52.136;4.500;2022-10-16T13:44:40;101670.22;;;19.14;51.08
72857;BME280;62742;52.136;4.500;2022-10-16T13:47:27;101667.56;;;19.14;51.80
72857;BME280;62742;52.136;4.500;2022-10-16T13:50:09;101652.22;;;18.97;52.62
72857;BME280;62742;52.136;4.500;2022-10-16T13:52:39;101663.13;;;19.15;51.75
72857;BME280;62742;52.136;4.500;2022-10-16T13:55:15;101663.13;;;19.15;52.07
72857;BME280;62742;52.136;4.500;2022-10-16T13:57:44;101675.81;;;19.08;52.95
72857;BME280;62742;52.136;4.500;2022-10-16T14:00:25;101667.13;;;19.03;54.35
72857;BME280;62742;52.136;4.500;2022-10-16T14:03:01;101667.50;;;19.16;54.88
72857;BME280;62742;52.136;4.500;2022-10-16T14:05:30;101661.09;;;18.98;55.43
72857;BME280;62742;52.136;4.500;2022-10-16T14:07:58;101660.72;;;18.83;57.40
72857;BME280;62742;52.136;4.500;2022-10-16T14:10:31;101659.81;;;18.84;56.15
72857;BME280;62742;52.136;4.500;2022-10-16T14:13:06;101662.78;;;18.75;57.90
72857;BME280;62742;52.136;4.500;2022-10-16T14:15:39;101651.81;;;18.84;56.77
72857;BME280;62742;52.136;4.500;2022-10-16T14:18:05;101650.38;;;18.99;55.71
72857;BME280;62742;52.136;4.500;2022-10-16T14:20:33;101647.91;;;18.95;57.62
72857;BME280;62742;52.136;4.500;2022-10-16T14:23:22;101659.56;;;18.91;56.04
72857;BME280;62742;52.136;4.500;2022-10-16T14:26:15;101660.81;;;18.80;55.53
72857;BME280;62742;52.136;4.500;2022-10-16T14:28:44;101668.78;;;18.80;55.35
72857;BME280;62742;52.136;4.500;2022-10-16T14:31:32;101666.75;;;18.63;56.55
72857;BME280;62742;52.136;4.500;2022-10-16T14:33:59;101663.66;;;18.50;57.88
72857;BME280;62742;52.136;4.500;2022-10-16T14:36:27;101657.69;;;18.44;58.84
72857;BME280;62742;52.136;4.500;2022-10-16T14:39:02;101673.59;;;18.45;57.52
72857;BME280;62742;52.136;4.500;2022-10-16T14:41:32;101672.91;;;18.40;57.91
72857;BME280;62742;52.136;4.500;2022-10-16T14:44:10;101656.03;;;18.41;58.07
72857;BME280;62742;52.136;4.500;2022-10-16T14:46:41;101660.25;;;18.47;58.27
72857;BME280;62742;52.136;4.500;2022-10-16T14:51:37;101656.66;;;18.48;57.94
72857;BME280;62742;52.136;4.500;2022-10-16T14:54:08;101658.19;;;18.30;58.23
72857;BME280;62742;52.136;4.500;2022-10-16T14:56:56;101659.91;;;18.31;60.72
72857;BME280;62742;52.136;4.500;2022-10-16T14:59:37;101660.09;;;18.26;60.21
72857;BME280;62742;52.136;4.500;2022-10-16T15:02:32;101663.28;;;18.11;60.57